Scotch Plains, NJ (07076)

10:09 AM EST on February 08, 2016 (GMT -0500)
Crestwood | | Change Station
CLOSE
Current Station
Personal Weather Station
Location: Scotch Plains, NJ
Elevation: 157 ft
Nearby Weather Stations
Active Advisory: Winter Weather Advisory

Elev 157 ft 40.64 °N, 74.37 °W | Updated 3 seconds ago

Overcast
Overcast
37.2 °F
Feels Like 37 °F
N
2.0
Wind Variable Wind from North
Gusts 14.0 mph

Today
High -- | Low -- °F
--% Chance of Precip.
Yesterday
High -- | Low -- °F
Precip. -- in
Pressure 29.82 in
Visibility 10.0 miles
Clouds Mostly Cloudy 3300 ft
Overcast 3900 ft
Windchill 37 °F
Dew Point 29 °F
Humidity 71%
Rainfall 0.00 in
Snow Depth Not available.
7:00 AM 5:23 PM
New Moon, 0% visible
METAR KLDJ 081455Z AUTO 04008KT 10SM BKN033 OVC039 03/M04 A2982 RMK AO2 T00301037
Pressure 29.82 in
Visibility 10.0 miles
Clouds Mostly Cloudy 3300 ft
Overcast 3900 ft
Windchill 37 °F
Dew Point 29 °F
Humidity 71%
Rainfall 0.00 in
Snow Depth Not available.
7:00 AM 5:23 PM
New Moon, 0% visible
METAR KLDJ 081455Z AUTO 04008KT 10SM BKN033 OVC039 03/M04 A2982 RMK AO2 T00301037

10-Day Weather Forecast

Almanac

Astronomy

Feb. 08, 2016 Rise Set
Actual Time
Civil Twilight
Nautical Twilight
Astronomical Twilight
Moon
Length of Visible Light
Length of Day
Tomorrow will be .
, % of the Moon is Illuminated

Today's Extremes

State Highs State Lows

Community

WunderPhotos

Upload Photos

1,891,446 photos uploaded!

WunderBlog® & News

Nearby

Air Quality

  Air Quality AQ Index Pollutant
Not available.

Snow Depth

Station Depth Elevation

Earthquake Activity

City Distance Mag. Time & Date
Minimum magnitude displayed is 2.5.

Coastal Water Temperatures

Place Temperature

Stations

Nearby Weather Stations

Station Location Temp. Windchill Dew Point Humidity Wind Precip. Elev Updated Type
                   

Watches & Warnings

Winter Weather Advisory
Issued: 7:21 AM EST Feb. 8, 2016 – National Weather Service

... Winter Weather Advisory remains in effect until 6 PM EST this
evening...

* locations... New York City and the northern and western suburbs.

* Hazard types... accumulating snow.

* Accumulations... snow accumulation of 2 to 3 inches.

* Winds... north 10 to 20 mph with gusts up to 30 mph.

* Temperatures... in the lower 30s.

* Timing... light snow will develop this morning... and continue
into the afternoon.

* Impacts... hazardous travel conditions due to snow covered
roads.

Precautionary/preparedness actions...

A Winter Weather Advisory for snow means that periods of snow
will cause travel difficulties. Be prepared for slippery roads
and limited visibilities... and use caution while driving.